Kimberley, South Africa
Current Conditions -  °F | °C
As of 4:00 AM on Monday 22 Dec 2014 (Local Time) from FAKM Reporting Station
NA  
Wind Chill: 59°   Ceiling: NA
Heat Index: 59°   Visibility: NA
Dew Point: 46°   Wind: 8mph
Humidity: 63%   Direction: 280°W
Pressure: 29.97"   Gusts: NA
Location:  28.75°S, 24.77°E
Report Text: FAKM 220200Z AUTO 28007KT //// // ////// 15/08 Q1015
Loading
Personal Weather Stations






























Interactive Weather Map New forecast layout! Learn more

10-Day Weather Forecast

Advertisements
Track Severe Weather on mobile